Terminal Aerodrome Forecast
Issued by NWS Wilmington, OH

Home | Current Version | Previous Version | Text Only | Print | Product List | Glossary On
Versions: 1 2 3 4 5 6 7 8 9 10 11 12 13 14 15 16 17 18 19 20
076
FTUS41 KILN 302331
TAFILN
TAF
KILN 302331Z 3100/3124 VRB02KT P6SM SCT250
     FM311500 05004KT P6SM FEW050 SCT250
     FM311800 06007KT P6SM BKN050 BKN250
     FM312300 06006KT P6SM FEW050 BKN250=

USA.gov is the U.S. government's official web portal to all federal, state and local government web resources and services.